sensor_id;sensor_type;location;lat;lon;timestamp;pressure;altitude;pressure_sealevel;temperature;humidity
62789;BME280;66401;42.016;21.454;2023-09-19T00:00:19;98465.56;;;20.27;59.75
62789;BME280;66401;42.016;21.454;2023-09-19T00:02:55;98471.84;;;20.21;59.49
62789;BME280;66401;42.016;21.454;2023-09-19T00:05:25;98479.03;;;20.26;59.40
62789;BME280;66401;42.016;21.454;2023-09-19T00:07:54;98465.50;;;20.22;59.62
62789;BME280;66401;42.016;21.454;2023-09-19T00:10:23;98470.81;;;20.22;59.43
62789;BME280;66401;42.016;21.454;2023-09-19T00:12:53;98473.75;;;20.26;59.31
62789;BME280;66401;42.016;21.454;2023-09-19T00:15:26;98464.72;;;20.22;59.91
62789;BME280;66401;42.016;21.454;2023-09-19T00:17:57;98454.91;;;20.17;60.08
62789;BME280;66401;42.016;21.454;2023-09-19T00:20:22;98458.53;;;20.11;60.47
62789;BME280;66401;42.016;21.454;2023-09-19T00:22:51;98459.47;;;20.00;60.98
62789;BME280;66401;42.016;21.454;2023-09-19T00:25:17;98465.91;;;20.09;61.13
62789;BME280;66401;42.016;21.454;2023-09-19T00:27:43;98467.69;;;20.04;61.27
62789;BME280;66401;42.016;21.454;2023-09-19T00:30:11;98465.22;;;19.97;61.79
62789;BME280;66401;42.016;21.454;2023-09-19T00:32:42;98463.63;;;19.96;61.30
62789;BME280;66401;42.016;21.454;2023-09-19T00:35:08;98448.97;;;19.83;61.84
62789;BME280;66401;42.016;21.454;2023-09-19T00:37:37;98454.53;;;19.87;61.14
62789;BME280;66401;42.016;21.454;2023-09-19T00:40:06;98449.72;;;19.79;61.53
62789;BME280;66401;42.016;21.454;2023-09-19T00:42:32;98460.31;;;19.84;61.04
62789;BME280;66401;42.016;21.454;2023-09-19T00:44:59;98457.69;;;19.84;61.25
62789;BME280;66401;42.016;21.454;2023-09-19T00:47:28;98462.00;;;19.90;60.62
62789;BME280;66401;42.016;21.454;2023-09-19T00:49:55;98441.16;;;19.71;61.20
62789;BME280;66401;42.016;21.454;2023-09-19T00:52:21;98443.59;;;19.78;60.70
62789;BME280;66401;42.016;21.454;2023-09-19T00:54:49;98443.19;;;19.64;61.43
62789;BME280;66401;42.016;21.454;2023-09-19T00:57:15;98445.31;;;19.67;61.64
62789;BME280;66401;42.016;21.454;2023-09-19T00:59:44;98441.63;;;19.68;61.61
62789;BME280;66401;42.016;21.454;2023-09-19T01:02:10;98425.47;;;19.43;61.73
62789;BME280;66401;42.016;21.454;2023-09-19T01:04:40;98453.22;;;19.62;61.14
62789;BME280;66401;42.016;21.454;2023-09-19T01:07:06;98452.25;;;19.52;62.31
62789;BME280;66401;42.016;21.454;2023-09-19T01:09:33;98437.66;;;19.49;62.03
62789;BME280;66401;42.016;21.454;2023-09-19T01:12:02;98435.69;;;19.56;61.10
62789;BME280;66401;42.016;21.454;2023-09-19T01:14:44;98423.91;;;19.47;61.42
62789;BME280;66401;42.016;21.454;2023-09-19T01:17:27;98427.31;;;19.42;62.05
62789;BME280;66401;42.016;21.454;2023-09-19T01:23:21;98425.00;;;19.29;62.86
62789;BME280;66401;42.016;21.454;2023-09-19T01:30:40;98436.94;;;19.32;62.87
62789;BME280;66401;42.016;21.454;2023-09-19T01:33:08;98422.06;;;19.26;62.79
62789;BME280;66401;42.016;21.454;2023-09-19T01:35:37;98433.03;;;19.17;63.58
62789;BME280;66401;42.016;21.454;2023-09-19T01:38:07;98438.84;;;19.20;62.61
62789;BME280;66401;42.016;21.454;2023-09-19T01:40:42;98438.84;;;19.20;63.52
62789;BME280;66401;42.016;21.454;2023-09-19T01:43:20;98440.25;;;19.05;63.99
62789;BME280;66401;42.016;21.454;2023-09-19T01:51:01;98449.78;;;19.06;62.61
62789;BME280;66401;42.016;21.454;2023-09-19T01:56:22;98432.88;;;19.07;62.11
62789;BME280;66401;42.016;21.454;2023-09-19T01:58:54;98431.38;;;19.11;62.73
62789;BME280;66401;42.016;21.454;2023-09-19T02:01:23;98422.41;;;19.12;61.99
62789;BME280;66401;42.016;21.454;2023-09-19T02:03:50;98419.19;;;19.10;62.01
62789;BME280;66401;42.016;21.454;2023-09-19T02:06:16;98430.88;;;19.14;62.68
62789;BME280;66401;42.016;21.454;2023-09-19T02:08:43;98434.38;;;19.20;62.39
62789;BME280;66401;42.016;21.454;2023-09-19T02:11:11;98434.31;;;19.15;62.29
62789;BME280;66401;42.016;21.454;2023-09-19T02:13:37;98419.28;;;19.15;61.83
62789;BME280;66401;42.016;21.454;2023-09-19T02:16:03;98440.00;;;19.24;61.24
62789;BME280;66401;42.016;21.454;2023-09-19T02:18:30;98435.66;;;19.17;61.15
62789;BME280;66401;42.016;21.454;2023-09-19T02:20:56;98438.06;;;19.19;61.33
62789;BME280;66401;42.016;21.454;2023-09-19T02:23:24;98433.78;;;19.13;61.71
62789;BME280;66401;42.016;21.454;2023-09-19T02:25:53;98430.78;;;19.09;61.70
62789;BME280;66401;42.016;21.454;2023-09-19T02:28:19;98433.44;;;19.09;62.15
62789;BME280;66401;42.016;21.454;2023-09-19T02:30:48;98429.34;;;19.19;61.67
62789;BME280;66401;42.016;21.454;2023-09-19T02:33:14;98429.75;;;19.10;61.80
62789;BME280;66401;42.016;21.454;2023-09-19T02:35:40;98435.22;;;19.04;62.53
62789;BME280;66401;42.016;21.454;2023-09-19T02:38:05;98424.31;;;19.00;62.66
62789;BME280;66401;42.016;21.454;2023-09-19T02:40:33;98429.06;;;18.98;62.80
62789;BME280;66401;42.016;21.454;2023-09-19T02:43:01;98418.75;;;18.97;63.94
62789;BME280;66401;42.016;21.454;2023-09-19T02:45:27;98426.66;;;18.97;62.89
62789;BME280;66401;42.016;21.454;2023-09-19T02:47:53;98425.97;;;18.84;63.80
62789;BME280;66401;42.016;21.454;2023-09-19T02:50:20;98417.00;;;18.85;63.99
62789;BME280;66401;42.016;21.454;2023-09-19T02:52:47;98410.84;;;18.80;63.71
62789;BME280;66401;42.016;21.454;2023-09-19T02:55:15;98414.66;;;18.89;63.17
62789;BME280;66401;42.016;21.454;2023-09-19T02:57:50;98401.66;;;18.82;63.22
62789;BME280;66401;42.016;21.454;2023-09-19T03:00:17;98416.34;;;18.95;63.99
62789;BME280;66401;42.016;21.454;2023-09-19T03:02:47;98416.34;;;18.95;63.30
62789;BME280;66401;42.016;21.454;2023-09-19T03:05:13;98415.56;;;18.95;62.83
62789;BME280;66401;42.016;21.454;2023-09-19T03:07:39;98421.53;;;18.90;62.65
62789;BME280;66401;42.016;21.454;2023-09-19T03:10:06;98425.78;;;18.91;62.39
62789;BME280;66401;42.016;21.454;2023-09-19T03:12:32;98425.16;;;18.84;62.55
62789;BME280;66401;42.016;21.454;2023-09-19T03:14:59;98429.78;;;18.77;62.66
62789;BME280;66401;42.016;21.454;2023-09-19T03:17:25;98422.91;;;18.76;63.04
62789;BME280;66401;42.016;21.454;2023-09-19T03:19:50;98421.31;;;18.75;62.92
62789;BME280;66401;42.016;21.454;2023-09-19T03:22:16;98419.25;;;18.77;62.16
62789;BME280;66401;42.016;21.454;2023-09-19T03:24:41;98428.75;;;18.78;62.42
62789;BME280;66401;42.016;21.454;2023-09-19T03:27:11;98427.41;;;18.75;63.01
62789;BME280;66401;42.016;21.454;2023-09-19T03:29:39;98429.78;;;18.77;62.95
62789;BME280;66401;42.016;21.454;2023-09-19T03:32:05;98440.84;;;18.74;62.52
62789;BME280;66401;42.016;21.454;2023-09-19T03:34:31;98444.53;;;18.73;62.60
62789;BME280;66401;42.016;21.454;2023-09-19T03:36:56;98433.78;;;18.63;62.41
62789;BME280;66401;42.016;21.454;2023-09-19T03:39:22;98437.00;;;18.65;62.97
62789;BME280;66401;42.016;21.454;2023-09-19T03:41:48;98433.06;;;18.67;63.19
62789;BME280;66401;42.016;21.454;2023-09-19T03:44:14;98430.75;;;18.71;62.59
62789;BME280;66401;42.016;21.454;2023-09-19T03:46:40;98433.16;;;18.72;63.25
62789;BME280;66401;42.016;21.454;2023-09-19T03:49:06;98427.06;;;18.72;62.81
62789;BME280;66401;42.016;21.454;2023-09-19T03:51:31;98421.31;;;18.75;63.01
62789;BME280;66401;42.016;21.454;2023-09-19T03:53:57;98385.78;;;18.49;63.30
62789;BME280;66401;42.016;21.454;2023-09-19T03:56:23;98418.94;;;18.73;63.60
62789;BME280;66401;42.016;21.454;2023-09-19T03:58:48;98418.13;;;18.73;63.63
62789;BME280;66401;42.016;21.454;2023-09-19T04:01:14;98426.75;;;18.68;64.28
62789;BME280;66401;42.016;21.454;2023-09-19T04:03:39;98412.38;;;18.76;64.03
62789;BME280;66401;42.016;21.454;2023-09-19T04:06:15;98419.72;;;18.74;64.36
62789;BME280;66401;42.016;21.454;2023-09-19T04:08:41;98422.91;;;18.76;63.83
62789;BME280;66401;42.016;21.454;2023-09-19T04:11:07;98440.34;;;18.77;63.60
62789;BME280;66401;42.016;21.454;2023-09-19T04:13:33;98441.63;;;18.74;64.43
62789;BME280;66401;42.016;21.454;2023-09-19T04:15:58;98443.47;;;18.74;64.79
62789;BME280;66401;42.016;21.454;2023-09-19T04:18:24;98435.47;;;18.69;64.71
62789;BME280;66401;42.016;21.454;2023-09-19T04:20:50;98447.88;;;18.68;64.32
62789;BME280;66401;42.016;21.454;2023-09-19T04:23:16;98431.97;;;18.51;65.19
62789;BME280;66401;42.016;21.454;2023-09-19T04:25:42;98454.22;;;18.55;65.72
62789;BME280;66401;42.016;21.454;2023-09-19T04:28:08;98456.13;;;18.60;65.66
62789;BME280;66401;42.016;21.454;2023-09-19T04:30:36;98453.63;;;18.65;64.75
62789;BME280;66401;42.016;21.454;2023-09-19T04:33:03;98455.34;;;18.59;65.15
62789;BME280;66401;42.016;21.454;2023-09-19T04:35:28;98457.53;;;18.63;65.92
62789;BME280;66401;42.016;21.454;2023-09-19T04:37:57;98456.81;;;18.67;65.75
62789;BME280;66401;42.016;21.454;2023-09-19T04:40:22;98462.19;;;18.72;65.76
62789;BME280;66401;42.016;21.454;2023-09-19T04:42:56;98454.50;;;18.71;65.19
62789;BME280;66401;42.016;21.454;2023-09-19T04:45:25;98454.09;;;18.79;65.02
62789;BME280;66401;42.016;21.454;2023-09-19T04:47:52;98464.66;;;18.79;64.85
62789;BME280;66401;42.016;21.454;2023-09-19T04:50:18;98460.97;;;18.80;65.14
62789;BME280;66401;42.016;21.454;2023-09-19T04:52:44;98459.38;;;18.79;64.80
62789;BME280;66401;42.016;21.454;2023-09-19T04:55:14;98451.06;;;18.70;65.44
62789;BME280;66401;42.016;21.454;2023-09-19T04:57:46;98455.34;;;18.59;66.86
62789;BME280;66401;42.016;21.454;2023-09-19T05:00:17;98460.75;;;18.65;67.11
62789;BME280;66401;42.016;21.454;2023-09-19T05:02:45;98439.38;;;18.66;66.37
62789;BME280;66401;42.016;21.454;2023-09-19T05:05:11;98445.47;;;18.67;65.62
62789;BME280;66401;42.016;21.454;2023-09-19T05:07:39;98455.53;;;18.70;65.88
62789;BME280;66401;42.016;21.454;2023-09-19T05:10:05;98450.84;;;18.60;66.30
62789;BME280;66401;42.016;21.454;2023-09-19T05:12:35;98424.38;;;18.38;66.55
62789;BME280;66401;42.016;21.454;2023-09-19T05:15:02;98453.09;;;18.51;66.82
62789;BME280;66401;42.016;21.454;2023-09-19T05:17:28;98461.53;;;18.65;67.44
62789;BME280;66401;42.016;21.454;2023-09-19T05:19:57;98465.44;;;18.63;66.51
62789;BME280;66401;42.016;21.454;2023-09-19T05:22:38;98460.16;;;18.63;66.47
62789;BME280;66401;42.016;21.454;2023-09-19T05:25:06;98456.75;;;18.50;67.48
62789;BME280;66401;42.016;21.454;2023-09-19T05:27:32;98453.66;;;18.53;67.30
62789;BME280;66401;42.016;21.454;2023-09-19T05:29:59;98449.03;;;18.44;67.63
62789;BME280;66401;42.016;21.454;2023-09-19T05:32:24;98453.72;;;18.42;68.14
62789;BME280;66401;42.016;21.454;2023-09-19T05:34:50;98449.47;;;17.95;69.58
62789;BME280;66401;42.016;21.454;2023-09-19T05:37:19;98460.72;;;17.79;70.17
62789;BME280;66401;42.016;21.454;2023-09-19T05:39:45;98470.88;;;17.99;70.56
62789;BME280;66401;42.016;21.454;2023-09-19T05:42:10;98465.19;;;18.19;69.75
62789;BME280;66401;42.016;21.454;2023-09-19T05:44:36;98466.03;;;18.36;69.50
62789;BME280;66401;42.016;21.454;2023-09-19T05:47:05;98471.13;;;18.43;67.68
62789;BME280;66401;42.016;21.454;2023-09-19T05:49:30;98466.44;;;18.62;67.34
62789;BME280;66401;42.016;21.454;2023-09-19T05:51:56;98462.22;;;18.60;67.53
62789;BME280;66401;42.016;21.454;2023-09-19T05:54:22;98449.34;;;18.47;68.81
62789;BME280;66401;42.016;21.454;2023-09-19T05:56:47;98461.97;;;18.17;69.70
62789;BME280;66401;42.016;21.454;2023-09-19T05:59:14;98462.91;;;18.11;69.47
62789;BME280;66401;42.016;21.454;2023-09-19T06:01:42;98456.53;;;18.07;70.09
62789;BME280;66401;42.016;21.454;2023-09-19T06:04:07;98453.31;;;18.50;67.83
62789;BME280;66401;42.016;21.454;2023-09-19T06:06:33;98454.09;;;18.79;66.21
62789;BME280;66401;42.016;21.454;2023-09-19T06:09:02;98460.81;;;19.03;65.70
62789;BME280;66401;42.016;21.454;2023-09-19T06:11:27;98456.78;;;19.17;64.93
62789;BME280;66401;42.016;21.454;2023-09-19T06:13:54;98460.22;;;19.35;64.79
62789;BME280;66401;42.016;21.454;2023-09-19T06:16:20;98456.91;;;19.44;63.97
62789;BME280;66401;42.016;21.454;2023-09-19T06:18:46;98469.56;;;19.59;63.91
62789;BME280;66401;42.016;21.454;2023-09-19T06:21:11;98453.50;;;19.66;65.78
62789;BME280;66401;42.016;21.454;2023-09-19T06:23:37;98459.81;;;19.87;65.87
62789;BME280;66401;42.016;21.454;2023-09-19T06:26:02;98462.91;;;20.00;65.91
62789;BME280;66401;42.016;21.454;2023-09-19T06:28:31;98459.06;;;20.13;64.23
62789;BME280;66401;42.016;21.454;2023-09-19T06:30:58;98459.16;;;20.23;62.00
62789;BME280;66401;42.016;21.454;2023-09-19T06:33:24;98458.78;;;20.37;61.93
62789;BME280;66401;42.016;21.454;2023-09-19T06:35:50;98460.00;;;20.51;61.62
62789;BME280;66401;42.016;21.454;2023-09-19T06:38:24;98457.97;;;20.63;60.95
62789;BME280;66401;42.016;21.454;2023-09-19T06:40:49;98464.38;;;20.67;61.07
62789;BME280;66401;42.016;21.454;2023-09-19T06:43:15;98467.06;;;20.18;61.48
62789;BME280;66401;42.016;21.454;2023-09-19T06:45:40;98467.16;;;20.28;63.20
62789;BME280;66401;42.016;21.454;2023-09-19T06:48:06;98471.88;;;20.48;65.05
62789;BME280;66401;42.016;21.454;2023-09-19T06:50:32;98475.50;;;20.69;62.74
62789;BME280;66401;42.016;21.454;2023-09-19T06:52:59;98480.84;;;20.74;63.84
62789;BME280;66401;42.016;21.454;2023-09-19T06:55:26;98482.53;;;20.85;61.35
62789;BME280;66401;42.016;21.454;2023-09-19T06:57:56;98479.97;;;20.96;60.00
62789;BME280;66401;42.016;21.454;2023-09-19T07:00:22;98480.56;;;21.08;59.53
62789;BME280;66401;42.016;21.454;2023-09-19T07:05:29;98467.34;;;21.13;60.44
62789;BME280;66401;42.016;21.454;2023-09-19T07:07:59;98452.16;;;20.61;61.25
62789;BME280;66401;42.016;21.454;2023-09-19T07:10:26;98468.94;;;21.09;61.16
62789;BME280;66401;42.016;21.454;2023-09-19T07:13:03;98465.75;;;21.12;59.98
62789;BME280;66401;42.016;21.454;2023-09-19T07:15:32;98468.72;;;21.58;59.15
62789;BME280;66401;42.016;21.454;2023-09-19T07:18:01;98464.63;;;21.92;59.97
62789;BME280;66401;42.016;21.454;2023-09-19T07:20:26;98473.16;;;21.10;61.09
62789;BME280;66401;42.016;21.454;2023-09-19T07:22:52;98472.00;;;21.85;59.18
62789;BME280;66401;42.016;21.454;2023-09-19T07:25:20;98464.75;;;22.43;57.49
62789;BME280;66401;42.016;21.454;2023-09-19T07:27:46;98453.00;;;23.61;55.55
62789;BME280;66401;42.016;21.454;2023-09-19T07:30:11;98454.31;;;24.18;52.52
62789;BME280;66401;42.016;21.454;2023-09-19T07:32:38;98465.13;;;23.83;55.47
62789;BME280;66401;42.016;21.454;2023-09-19T07:35:04;98471.56;;;23.77;54.47
62789;BME280;66401;42.016;21.454;2023-09-19T07:37:31;98470.38;;;23.98;54.76
62789;BME280;66401;42.016;21.454;2023-09-19T07:40:02;98459.84;;;23.73;56.41
62789;BME280;66401;42.016;21.454;2023-09-19T07:42:35;98465.75;;;23.64;56.37
62789;BME280;66401;42.016;21.454;2023-09-19T07:45:02;98471.31;;;25.01;53.33
62789;BME280;66401;42.016;21.454;2023-09-19T07:47:28;98466.44;;;25.61;51.80
62789;BME280;66401;42.016;21.454;2023-09-19T07:49:55;98481.66;;;26.27;50.91
62789;BME280;66401;42.016;21.454;2023-09-19T07:52:21;98477.84;;;25.43;51.82
62789;BME280;66401;42.016;21.454;2023-09-19T07:54:48;98473.78;;;27.20;48.51
62789;BME280;66401;42.016;21.454;2023-09-19T07:57:15;98472.41;;;25.53;51.56
62789;BME280;66401;42.016;21.454;2023-09-19T07:59:41;98475.88;;;26.20;50.05
62789;BME280;66401;42.016;21.454;2023-09-19T08:02:10;98463.16;;;26.12;50.69
62789;BME280;66401;42.016;21.454;2023-09-19T08:04:44;98462.94;;;26.27;50.33
62789;BME280;66401;42.016;21.454;2023-09-19T08:07:14;98466.78;;;25.54;50.69
62789;BME280;66401;42.016;21.454;2023-09-19T08:09:40;98457.13;;;25.34;52.17
62789;BME280;66401;42.016;21.454;2023-09-19T08:12:06;98462.25;;;25.31;52.89
62789;BME280;66401;42.016;21.454;2023-09-19T08:14:36;98469.09;;;25.13;52.41
62789;BME280;66401;42.016;21.454;2023-09-19T08:17:02;98465.38;;;24.41;53.91
62789;BME280;66401;42.016;21.454;2023-09-19T08:19:28;98469.97;;;24.69;53.67
62789;BME280;66401;42.016;21.454;2023-09-19T08:21:58;98464.03;;;25.11;53.83
62789;BME280;66401;42.016;21.454;2023-09-19T08:24:25;98470.38;;;25.68;51.19
62789;BME280;66401;42.016;21.454;2023-09-19T08:26:54;98469.16;;;25.56;51.24
62789;BME280;66401;42.016;21.454;2023-09-19T08:29:20;98456.94;;;24.97;53.06
62789;BME280;66401;42.016;21.454;2023-09-19T08:31:46;98459.06;;;25.53;52.54
62789;BME280;66401;42.016;21.454;2023-09-19T08:34:15;98469.41;;;25.83;50.82
62789;BME280;66401;42.016;21.454;2023-09-19T08:36:40;98464.53;;;26.09;49.62
62789;BME280;66401;42.016;21.454;2023-09-19T08:39:08;98473.19;;;26.58;48.57
62789;BME280;66401;42.016;21.454;2023-09-19T08:41:34;98437.72;;;26.71;48.53
62789;BME280;66401;42.016;21.454;2023-09-19T08:44:00;98472.38;;;27.08;47.20
62789;BME280;66401;42.016;21.454;2023-09-19T08:46:30;98471.94;;;27.01;46.94
62789;BME280;66401;42.016;21.454;2023-09-19T08:49:10;98455.00;;;27.25;47.51
62789;BME280;66401;42.016;21.454;2023-09-19T08:51:42;98457.25;;;27.04;47.75
62789;BME280;66401;42.016;21.454;2023-09-19T08:54:28;98464.41;;;26.90;46.37
62789;BME280;66401;42.016;21.454;2023-09-19T08:57:00;98454.63;;;25.67;50.94
62789;BME280;66401;42.016;21.454;2023-09-19T08:59:33;98453.84;;;25.90;50.27
62789;BME280;66401;42.016;21.454;2023-09-19T09:02:00;98461.72;;;26.19;50.79
62789;BME280;66401;42.016;21.454;2023-09-19T09:04:27;98446.63;;;26.10;49.52
62789;BME280;66401;42.016;21.454;2023-09-19T09:06:53;98434.16;;;26.43;48.30
62789;BME280;66401;42.016;21.454;2023-09-19T09:09:20;98432.31;;;26.76;47.93
62789;BME280;66401;42.016;21.454;2023-09-19T09:11:48;98424.47;;;26.66;47.58
62789;BME280;66401;42.016;21.454;2023-09-19T09:14:15;98419.22;;;25.85;50.14
62789;BME280;66401;42.016;21.454;2023-09-19T09:16:41;98412.88;;;26.19;48.51
62789;BME280;66401;42.016;21.454;2023-09-19T09:19:07;98408.44;;;27.12;48.35
62789;BME280;66401;42.016;21.454;2023-09-19T09:21:32;98406.75;;;27.30;46.95
62789;BME280;66401;42.016;21.454;2023-09-19T09:24:26;98397.34;;;27.19;46.83
62789;BME280;66401;42.016;21.454;2023-09-19T09:26:52;98401.31;;;27.35;46.82
62789;BME280;66401;42.016;21.454;2023-09-19T09:29:41;98396.16;;;27.38;46.64
62789;BME280;66401;42.016;21.454;2023-09-19T09:34:54;98396.28;;;25.84;49.30
62789;BME280;66401;42.016;21.454;2023-09-19T09:37:20;98391.91;;;26.77;48.93
62789;BME280;66401;42.016;21.454;2023-09-19T09:39:55;98381.88;;;27.71;45.37
62789;BME280;66401;42.016;21.454;2023-09-19T09:42:37;98383.09;;;28.45;43.44
62789;BME280;66401;42.016;21.454;2023-09-19T09:45:25;98391.13;;;29.39;42.67
62789;BME280;66401;42.016;21.454;2023-09-19T09:48:00;98382.06;;;29.91;40.61
62789;BME280;66401;42.016;21.454;2023-09-19T09:50:36;98385.19;;;30.80;38.98
62789;BME280;66401;42.016;21.454;2023-09-19T09:53:26;98373.84;;;30.48;39.22
62789;BME280;66401;42.016;21.454;2023-09-19T09:56:09;98372.84;;;32.51;36.44
62789;BME280;66401;42.016;21.454;2023-09-19T09:58:40;98366.09;;;32.45;35.45
62789;BME280;66401;42.016;21.454;2023-09-19T10:01:14;98360.50;;;33.84;32.96
62789;BME280;66401;42.016;21.454;2023-09-19T10:03:42;98357.38;;;32.60;35.04
62789;BME280;66401;42.016;21.454;2023-09-19T10:06:17;98350.03;;;33.30;34.88
62789;BME280;66401;42.016;21.454;2023-09-19T10:11:42;98339.56;;;36.02;29.58
62789;BME280;66401;42.016;21.454;2023-09-19T10:14:15;98344.25;;;34.53;32.67
62789;BME280;66401;42.016;21.454;2023-09-19T10:16:48;98347.94;;;32.66;35.62
62789;BME280;66401;42.016;21.454;2023-09-19T10:19:37;98336.75;;;31.27;38.11
62789;BME280;66401;42.016;21.454;2023-09-19T10:22:12;98327.47;;;30.69;37.91
62789;BME280;66401;42.016;21.454;2023-09-19T10:24:47;98315.72;;;30.01;38.97
62789;BME280;66401;42.016;21.454;2023-09-19T10:27:12;98306.59;;;29.67;40.22
62789;BME280;66401;42.016;21.454;2023-09-19T10:29:45;98318.25;;;29.45;39.40
62789;BME280;66401;42.016;21.454;2023-09-19T10:32:15;98304.88;;;28.97;41.66
62789;BME280;66401;42.016;21.454;2023-09-19T10:34:46;98310.84;;;28.94;41.62
62789;BME280;66401;42.016;21.454;2023-09-19T10:37:12;98310.56;;;28.64;42.12
62789;BME280;66401;42.016;21.454;2023-09-19T10:39:39;98306.47;;;28.67;41.19
62789;BME280;66401;42.016;21.454;2023-09-19T10:42:06;98312.69;;;28.22;42.07
62789;BME280;66401;42.016;21.454;2023-09-19T10:44:37;98295.50;;;29.25;42.56
62789;BME280;66401;42.016;21.454;2023-09-19T10:47:09;98299.25;;;29.07;40.96
62789;BME280;66401;42.016;21.454;2023-09-19T10:49:35;98300.06;;;28.85;40.61
62789;BME280;66401;42.016;21.454;2023-09-19T10:52:01;98286.53;;;28.50;42.38
62789;BME280;66401;42.016;21.454;2023-09-19T10:54:31;98286.34;;;29.26;39.95
62789;BME280;66401;42.016;21.454;2023-09-19T10:56:59;98260.34;;;28.87;40.10
62789;BME280;66401;42.016;21.454;2023-09-19T10:59:26;98272.34;;;29.64;38.32
62789;BME280;66401;42.016;21.454;2023-09-19T11:02:00;98267.50;;;31.78;35.93
62789;BME280;66401;42.016;21.454;2023-09-19T11:04:40;98264.94;;;33.49;33.07
62789;BME280;66401;42.016;21.454;2023-09-19T11:07:07;98254.09;;;34.80;33.22
62789;BME280;66401;42.016;21.454;2023-09-19T11:09:55;98255.41;;;35.56;29.46
62789;BME280;66401;42.016;21.454;2023-09-19T11:15:09;98251.28;;;33.17;33.50
62789;BME280;66401;42.016;21.454;2023-09-19T11:17:39;98243.88;;;33.82;32.02
62789;BME280;66401;42.016;21.454;2023-09-19T11:30:33;98213.97;;;36.67;27.30
62789;BME280;66401;42.016;21.454;2023-09-19T11:43:53;98204.00;;;32.59;32.28
62789;BME280;66401;42.016;21.454;2023-09-19T11:46:24;98193.91;;;33.33;32.34
62789;BME280;66401;42.016;21.454;2023-09-19T11:48:52;98192.56;;;32.37;31.44
62789;BME280;66401;42.016;21.454;2023-09-19T11:51:23;98193.97;;;31.44;33.34
62789;BME280;66401;42.016;21.454;2023-09-19T11:53:53;98173.16;;;31.12;34.31
62789;BME280;66401;42.016;21.454;2023-09-19T11:56:23;98192.41;;;31.22;34.53
62789;BME280;66401;42.016;21.454;2023-09-19T11:58:56;98181.78;;;31.80;35.22
62789;BME280;66401;42.016;21.454;2023-09-19T12:01:32;98184.25;;;32.30;33.12
62789;BME280;66401;42.016;21.454;2023-09-19T12:04:00;98182.31;;;31.40;34.66
62789;BME280;66401;42.016;21.454;2023-09-19T12:06:28;98168.44;;;30.58;34.89
62789;BME280;66401;42.016;21.454;2023-09-19T12:09:01;98163.00;;;30.96;34.04
62789;BME280;66401;42.016;21.454;2023-09-19T12:11:32;98144.47;;;31.16;34.01
62789;BME280;66401;42.016;21.454;2023-09-19T12:14:01;98155.00;;;31.09;34.98
62789;BME280;66401;42.016;21.454;2023-09-19T12:16:27;98163.09;;;31.29;34.82
62789;BME280;66401;42.016;21.454;2023-09-19T12:18:57;98154.84;;;30.84;34.91
62789;BME280;66401;42.016;21.454;2023-09-19T12:21:30;98158.25;;;31.56;34.95
62789;BME280;66401;42.016;21.454;2023-09-19T12:24:05;98148.16;;;31.98;34.20
62789;BME280;66401;42.016;21.454;2023-09-19T12:26:41;98158.72;;;32.15;33.40
62789;BME280;66401;42.016;21.454;2023-09-19T12:29:14;98155.38;;;31.40;33.72
62789;BME280;66401;42.016;21.454;2023-09-19T12:31:49;98145.41;;;30.78;34.87
62789;BME280;66401;42.016;21.454;2023-09-19T12:34:23;98128.84;;;30.00;35.25
62789;BME280;66401;42.016;21.454;2023-09-19T12:37:13;98138.31;;;29.59;36.00
62789;BME280;66401;42.016;21.454;2023-09-19T12:39:50;98120.97;;;29.56;36.49
62789;BME280;66401;42.016;21.454;2023-09-19T12:42:23;98111.19;;;29.34;36.94
62789;BME280;66401;42.016;21.454;2023-09-19T12:44:50;98112.25;;;29.59;36.92
62789;BME280;66401;42.016;21.454;2023-09-19T12:47:20;98119.56;;;28.90;37.02
62789;BME280;66401;42.016;21.454;2023-09-19T12:50:14;98113.09;;;29.25;38.51
62789;BME280;66401;42.016;21.454;2023-09-19T12:52:42;98106.72;;;29.64;37.25
62789;BME280;66401;42.016;21.454;2023-09-19T12:55:19;98104.47;;;29.75;36.81
62789;BME280;66401;42.016;21.454;2023-09-19T12:58:14;98103.75;;;29.57;37.53
62789;BME280;66401;42.016;21.454;2023-09-19T13:00:45;98098.91;;;29.89;36.61
62789;BME280;66401;42.016;21.454;2023-09-19T13:06:07;98097.28;;;29.32;38.08
62789;BME280;66401;42.016;21.454;2023-09-19T13:08:37;98093.50;;;29.33;37.69
62789;BME280;66401;42.016;21.454;2023-09-19T13:11:13;98097.91;;;30.02;37.22
62789;BME280;66401;42.016;21.454;2023-09-19T13:16:10;98096.50;;;29.49;38.46
62789;BME280;66401;42.016;21.454;2023-09-19T13:18:48;98079.97;;;29.04;39.12
62789;BME280;66401;42.016;21.454;2023-09-19T13:21:17;98079.91;;;29.39;38.26
62789;BME280;66401;42.016;21.454;2023-09-19T13:23:53;98085.72;;;29.67;38.57
62789;BME280;66401;42.016;21.454;2023-09-19T13:26:21;98076.69;;;29.71;38.00
62789;BME280;66401;42.016;21.454;2023-09-19T13:28:48;98069.38;;;29.80;38.00
62789;BME280;66401;42.016;21.454;2023-09-19T13:31:14;98077.13;;;29.82;39.67
62789;BME280;66401;42.016;21.454;2023-09-19T13:33:44;98067.81;;;29.79;37.97
62789;BME280;66401;42.016;21.454;2023-09-19T13:36:11;98069.38;;;29.80;39.05
62789;BME280;66401;42.016;21.454;2023-09-19T13:38:37;98062.84;;;29.52;38.72
62789;BME280;66401;42.016;21.454;2023-09-19T13:41:03;98062.50;;;29.62;38.69
62789;BME280;66401;42.016;21.454;2023-09-19T13:43:28;98062.41;;;29.50;38.08
62789;BME280;66401;42.016;21.454;2023-09-19T13:45:54;98066.03;;;29.54;37.88
62789;BME280;66401;42.016;21.454;2023-09-19T13:48:20;98066.84;;;29.37;38.79
62789;BME280;66401;42.016;21.454;2023-09-19T13:50:48;98060.97;;;29.52;38.60
62789;BME280;66401;42.016;21.454;2023-09-19T13:53:14;98056.00;;;29.72;39.31